createdAt,value
2022-11-28T00:01:36.950Z,3.40
2022-11-28T00:04:06.385Z,2.80
2022-11-28T00:06:46.096Z,2.90
2022-11-28T00:09:15.499Z,3.00
2022-11-28T00:11:45.170Z,3.20
2022-11-28T00:14:13.102Z,2.60
2022-11-28T00:16:40.205Z,2.60
2022-11-28T00:19:08.090Z,2.90
2022-11-28T00:21:35.749Z,3.20
2022-11-28T00:24:03.327Z,3.30
2022-11-28T00:26:34.060Z,3.60
2022-11-28T00:29:02.711Z,4.60
2022-11-28T00:31:33.757Z,4.20
2022-11-28T00:34:02.158Z,5.60
2022-11-28T00:36:30.319Z,4.50
2022-11-28T00:41:30.325Z,5.40
2022-11-28T00:43:58.422Z,5.50
2022-11-28T00:48:54.038Z,6.50
2022-11-28T00:54:00.043Z,5.30
2022-11-28T00:56:35.028Z,5.40
2022-11-28T00:59:02.554Z,5.60
2022-11-28T01:01:33.575Z,5.70
2022-11-28T01:04:04.878Z,6.50
2022-11-28T01:06:43.123Z,4.50
2022-11-28T01:09:24.774Z,4.70
2022-11-28T01:11:53.883Z,6.10
2022-11-28T01:14:24.854Z,5.20
2022-11-28T01:16:51.916Z,4.90
2022-11-28T01:19:20.095Z,4.80
2022-11-28T01:24:14.771Z,5.20
2022-11-28T01:26:42.250Z,4.40
2022-11-28T01:29:09.889Z,4.60
2022-11-28T01:31:37.860Z,5.00
2022-11-28T01:36:32.040Z,5.00
2022-11-28T01:38:58.979Z,4.80
2022-11-28T01:41:28.847Z,5.90
2022-11-28T01:44:15.861Z,6.60
2022-11-28T01:46:43.705Z,5.80
2022-11-28T01:49:31.844Z,4.90
2022-11-28T01:52:05.825Z,5.70
2022-11-28T01:54:35.867Z,5.30
2022-11-28T01:57:08.622Z,5.00
2022-11-28T01:59:43.040Z,5.20
2022-11-28T02:02:19.900Z,6.70
2022-11-28T02:04:47.784Z,6.70
2022-11-28T02:07:14.900Z,6.50
2022-11-28T02:09:41.746Z,6.30
2022-11-28T02:12:43.845Z,5.90
2022-11-28T02:15:35.799Z,6.30
2022-11-28T02:18:27.499Z,6.20
2022-11-28T02:21:06.323Z,5.10
2022-11-28T02:24:07.178Z,6.70
2022-11-28T02:27:01.461Z,4.80
2022-11-28T02:30:19.782Z,6.20
2022-11-28T02:33:13.683Z,5.80
2022-11-28T02:36:14.205Z,5.60
2022-11-28T02:38:54.485Z,4.80
2022-11-28T02:42:01.753Z,4.90
2022-11-28T02:44:45.357Z,4.90
2022-11-28T02:47:33.945Z,5.90
2022-11-28T02:50:19.721Z,5.10
2022-11-28T02:53:06.328Z,5.80
2022-11-28T02:55:34.384Z,5.10
2022-11-28T03:00:38.753Z,5.10
2022-11-28T03:03:27.404Z,5.00
2022-11-28T03:06:30.325Z,5.20
2022-11-28T03:09:02.974Z,4.60
2022-11-28T03:11:58.981Z,5.10
2022-11-28T03:14:51.119Z,5.10
2022-11-28T03:17:47.755Z,5.20
2022-11-28T03:20:29.559Z,4.70
2022-11-28T03:23:16.864Z,4.70
2022-11-28T03:25:58.392Z,4.50
2022-11-28T03:28:38.122Z,5.60
2022-11-28T03:31:15.413Z,12.30
2022-11-28T03:34:05.996Z,15.80
2022-11-28T03:36:41.005Z,16.20
2022-11-28T03:39:24.505Z,15.00
2022-11-28T03:42:02.497Z,15.60
2022-11-28T03:47:07.164Z,23.20
2022-11-28T03:49:42.069Z,21.50
2022-11-28T03:52:27.525Z,22.30
2022-11-28T03:55:05.020Z,22.20
2022-11-28T03:57:58.667Z,16.60
2022-11-28T04:00:25.976Z,16.90
2022-11-28T04:03:27.042Z,20.80
2022-11-28T04:06:27.588Z,14.80
2022-11-28T04:09:12.996Z,9.00
2022-11-28T04:11:55.577Z,6.10
2022-11-28T04:14:32.854Z,7.50
2022-11-28T04:17:16.590Z,7.00
2022-11-28T04:20:04.451Z,7.10
2022-11-28T04:25:16.134Z,8.40
2022-11-28T04:27:59.687Z,10.10
2022-11-28T04:30:26.487Z,12.00
2022-11-28T04:33:02.721Z,11.80
2022-11-28T04:35:46.461Z,12.20
2022-11-28T04:38:14.712Z,13.80
2022-11-28T04:40:54.504Z,12.20
2022-11-28T04:43:30.054Z,9.30
2022-11-28T04:46:14.942Z,7.10
2022-11-28T04:48:42.578Z,5.80
2022-11-28T04:51:36.546Z,6.60
2022-11-28T04:54:21.575Z,5.10
2022-11-28T04:57:11.042Z,8.00
2022-11-28T04:59:40.637Z,9.00
2022-11-28T05:02:08.672Z,9.20
2022-11-28T05:07:08.659Z,7.10
2022-11-28T05:09:36.631Z,8.50
2022-11-28T05:12:04.793Z,12.50
2022-11-28T05:14:32.215Z,16.80
2022-11-28T05:16:58.938Z,17.20
2022-11-28T05:19:25.836Z,14.70
2022-11-28T05:21:53.609Z,11.80
2022-11-28T05:24:22.498Z,11.40
2022-11-28T05:26:50.563Z,10.70
2022-11-28T05:29:18.428Z,8.50
2022-11-28T05:31:45.260Z,7.50
2022-11-28T05:34:12.134Z,9.00
2022-11-28T05:36:38.954Z,10.20
2022-11-28T05:39:05.899Z,13.50
2022-11-28T05:41:33.542Z,18.70
2022-11-28T05:44:01.459Z,21.90
2022-11-28T05:46:29.932Z,13.80
2022-11-28T05:48:58.286Z,18.10
2022-11-28T05:51:25.373Z,15.30
2022-11-28T05:53:52.161Z,14.20
2022-11-28T05:56:22.447Z,12.40
2022-11-28T05:58:49.555Z,6.10
2022-11-28T06:01:24.377Z,7.30
2022-11-28T06:03:58.006Z,6.90
2022-11-28T06:06:30.984Z,6.90
2022-11-28T06:08:58.830Z,7.30
2022-11-28T06:11:29.710Z,7.10
2022-11-28T06:13:56.836Z,7.30
2022-11-28T06:16:29.183Z,6.40
2022-11-28T06:19:02.372Z,5.90
2022-11-28T06:21:31.148Z,5.50
2022-11-28T06:24:00.169Z,5.50
2022-11-28T06:26:29.445Z,4.80
2022-11-28T06:28:56.877Z,5.40
2022-11-28T06:31:30.505Z,8.60
2022-11-28T06:33:58.811Z,6.00
2022-11-28T06:36:27.123Z,5.30
2022-11-28T06:38:54.427Z,4.00
2022-11-28T06:41:23.135Z,4.20
2022-11-28T06:43:50.975Z,3.90
2022-11-28T06:46:21.366Z,4.10
2022-11-28T06:48:50.799Z,4.40
2022-11-28T06:51:19.277Z,4.20
2022-11-28T06:53:46.630Z,4.40
2022-11-28T06:56:19.159Z,4.00
2022-11-28T06:58:47.303Z,3.70
2022-11-28T07:03:45.561Z,3.30
2022-11-28T07:06:15.795Z,3.40
2022-11-28T07:08:43.564Z,4.20
2022-11-28T07:11:20.643Z,4.20
2022-11-28T07:13:49.227Z,3.50
2022-11-28T07:16:24.647Z,3.50
2022-11-28T07:18:53.252Z,3.80
2022-11-28T07:21:21.571Z,3.10
2022-11-28T07:23:49.114Z,3.50
2022-11-28T07:26:19.013Z,3.50
2022-11-28T07:28:46.562Z,3.40
2022-11-28T07:31:21.462Z,3.30
2022-11-28T07:33:50.875Z,4.80
2022-11-28T07:36:23.154Z,6.60
2022-11-28T07:38:56.673Z,7.40
2022-11-28T07:41:26.945Z,11.10
2022-11-28T07:44:00.573Z,16.50
2022-11-28T07:46:31.163Z,23.70
2022-11-28T07:48:58.022Z,19.80
2022-11-28T07:51:29.877Z,13.80
2022-11-28T07:53:57.074Z,11.30
2022-11-28T07:56:39.498Z,5.30
2022-11-28T07:59:12.586Z,4.00
2022-11-28T08:01:39.939Z,3.60
2022-11-28T08:04:09.910Z,3.40
2022-11-28T08:06:40.738Z,4.20
2022-11-28T08:09:08.688Z,3.70
2022-11-28T08:11:36.744Z,3.60
2022-11-28T08:14:05.112Z,3.80
2022-11-28T08:16:32.897Z,4.20
2022-11-28T08:19:03.569Z,4.60
2022-11-28T08:21:32.972Z,4.50
2022-11-28T08:24:02.422Z,4.20
2022-11-28T08:26:31.873Z,4.40
2022-11-28T08:29:01.139Z,3.60
2022-11-28T08:31:32.440Z,4.40
2022-11-28T08:34:02.382Z,3.40
2022-11-28T08:36:29.765Z,3.80
2022-11-28T08:41:46.534Z,4.40
2022-11-28T08:44:13.751Z,4.40
2022-11-28T08:46:40.607Z,4.70
2022-11-28T08:49:07.653Z,4.60
2022-11-28T08:51:34.828Z,4.20
2022-11-28T08:54:01.779Z,4.30
2022-11-28T08:56:28.692Z,4.40
2022-11-28T08:58:56.097Z,6.20
2022-11-28T09:01:26.142Z,5.20
2022-11-28T09:03:55.770Z,5.50
2022-11-28T09:06:24.073Z,4.70
2022-11-28T09:08:53.999Z,5.50
2022-11-28T09:11:23.099Z,4.10
2022-11-28T09:13:50.637Z,4.60
2022-11-28T09:16:19.770Z,5.60
2022-11-28T09:18:46.780Z,5.80
2022-11-28T09:21:15.823Z,4.90
2022-11-28T09:23:45.484Z,5.20
2022-11-28T09:26:19.674Z,5.20
2022-11-28T09:28:47.690Z,5.40
2022-11-28T09:31:17.172Z,5.40
2022-11-28T09:33:45.744Z,5.90
2022-11-28T09:36:16.917Z,4.90
2022-11-28T09:38:44.280Z,5.10
2022-11-28T09:41:43.401Z,5.00
2022-11-28T09:44:44.243Z,4.00
2022-11-28T09:47:25.198Z,5.00
2022-11-28T09:50:16.711Z,5.30
2022-11-28T09:52:49.556Z,4.90
2022-11-28T09:55:34.637Z,4.50
2022-11-28T09:58:14.678Z,5.90
2022-11-28T10:00:56.177Z,5.00
2022-11-28T10:03:39.980Z,5.20
2022-11-28T10:06:22.013Z,5.00
2022-11-28T10:09:16.794Z,4.70
2022-11-28T10:12:02.551Z,4.60
2022-11-28T10:15:15.428Z,4.30
2022-11-28T10:18:06.122Z,4.40
2022-11-28T10:20:39.733Z,5.00
2022-11-28T10:23:31.711Z,4.80
2022-11-28T10:26:22.069Z,4.90
2022-11-28T10:28:55.639Z,5.10
2022-11-28T10:31:39.413Z,4.30
2022-11-28T10:34:59.371Z,4.70
2022-11-28T10:37:31.551Z,4.80
2022-11-28T10:40:41.696Z,5.10
2022-11-28T10:43:23.797Z,5.10
2022-11-28T10:46:34.002Z,4.50
2022-11-28T10:50:02.680Z,4.60
2022-11-28T10:53:12.591Z,4.20
2022-11-28T10:56:14.041Z,4.10
2022-11-28T10:59:09.114Z,4.30
2022-11-28T11:01:44.606Z,4.20
2022-11-28T11:04:26.692Z,4.90
2022-11-28T11:07:20.950Z,5.10
2022-11-28T11:09:52.232Z,3.80
2022-11-28T11:12:29.098Z,5.10
2022-11-28T11:14:55.953Z,5.20
2022-11-28T11:17:50.911Z,5.30
2022-11-28T11:20:23.486Z,5.60
2022-11-28T11:22:59.281Z,5.80
2022-11-28T11:25:29.896Z,5.10
2022-11-28T11:28:01.766Z,5.00
2022-11-28T11:30:38.858Z,5.80
2022-11-28T11:33:15.003Z,4.30
2022-11-28T11:35:50.011Z,4.70
2022-11-28T11:38:23.353Z,5.40
2022-11-28T11:40:52.044Z,5.20
2022-11-28T11:43:38.114Z,5.30
2022-11-28T11:46:10.924Z,5.40
2022-11-28T11:48:51.175Z,5.50
2022-11-28T11:51:23.738Z,6.20
2022-11-28T11:54:12.914Z,5.90
2022-11-28T11:56:45.693Z,5.00
2022-11-28T11:59:28.709Z,4.90
2022-11-28T12:02:59.448Z,4.30
2022-11-28T12:06:25.651Z,5.60
2022-11-28T12:08:52.695Z,5.50
2022-11-28T12:11:31.891Z,5.30
2022-11-28T12:14:29.734Z,5.20
2022-11-28T12:17:47.332Z,5.20
2022-11-28T12:20:44.119Z,5.30
2022-11-28T12:23:19.563Z,6.10
2022-11-28T12:26:00.238Z,5.70
2022-11-28T12:28:49.685Z,6.30
2022-11-28T12:31:40.428Z,5.80
2022-11-28T12:34:29.149Z,5.10
2022-11-28T12:37:29.457Z,5.90
2022-11-28T12:40:55.102Z,5.40
2022-11-28T12:43:30.948Z,6.40
2022-11-28T12:46:27.095Z,5.50
2022-11-28T12:49:05.836Z,5.60
2022-11-28T12:52:16.267Z,6.20
2022-11-28T12:55:14.025Z,5.90
2022-11-28T12:58:09.774Z,5.70
2022-11-28T13:01:05.772Z,4.70
2022-11-28T13:03:55.383Z,5.00
2022-11-28T13:06:57.004Z,5.10
2022-11-28T13:09:38.527Z,5.20
2022-11-28T13:12:40.967Z,5.50
2022-11-28T13:15:53.111Z,5.00
2022-11-28T13:18:43.786Z,5.60
2022-11-28T13:21:43.863Z,5.90
2022-11-28T13:24:35.925Z,6.10
2022-11-28T13:27:32.699Z,6.00
2022-11-28T13:30:25.527Z,6.60
2022-11-28T13:33:16.945Z,6.20
2022-11-28T13:35:46.653Z,6.40
2022-11-28T13:39:10.849Z,6.50
2022-11-28T13:42:10.019Z,5.60
2022-11-28T13:45:01.291Z,5.30
2022-11-28T13:47:35.706Z,4.80
2022-11-28T13:50:33.819Z,4.80
2022-11-28T13:53:06.636Z,6.10
2022-11-28T13:55:36.476Z,5.90
2022-11-28T13:58:41.876Z,5.40
2022-11-28T14:01:14.447Z,6.10
2022-11-28T14:04:11.211Z,6.00
2022-11-28T14:06:52.207Z,6.10
2022-11-28T14:09:47.897Z,6.00
2022-11-28T14:12:45.569Z,6.70
2022-11-28T14:18:55.003Z,6.40
2022-11-28T14:21:51.358Z,5.90
2022-11-28T14:24:53.222Z,6.30
2022-11-28T14:27:35.926Z,6.90
2022-11-28T14:30:26.012Z,5.50
2022-11-28T14:33:05.658Z,5.30
2022-11-28T14:35:50.732Z,5.50
2022-11-28T14:38:36.069Z,6.30
2022-11-28T14:41:11.981Z,7.00
2022-11-28T14:43:48.839Z,6.00
2022-11-28T14:46:15.635Z,5.90
2022-11-28T14:49:05.260Z,5.90
2022-11-28T14:51:47.569Z,7.50
2022-11-28T14:54:37.447Z,7.10
2022-11-28T14:57:18.574Z,7.00
2022-11-28T14:59:48.224Z,6.70
2022-11-28T15:02:33.818Z,7.50
2022-11-28T15:05:29.976Z,6.80
2022-11-28T15:08:05.081Z,5.80
2022-11-28T15:10:48.225Z,6.70
2022-11-28T15:13:48.941Z,7.30
2022-11-28T15:16:20.229Z,7.70
2022-11-28T15:19:02.593Z,5.80
2022-11-28T15:21:30.449Z,7.10
2022-11-28T15:23:57.499Z,7.80
2022-11-28T15:26:30.499Z,8.00
2022-11-28T15:29:22.259Z,8.10
2022-11-28T15:31:53.399Z,7.80
2022-11-28T15:34:38.035Z,6.80
2022-11-28T15:37:15.404Z,5.40
2022-11-28T15:39:46.851Z,5.90
2022-11-28T15:42:27.166Z,7.30
2022-11-28T15:45:30.501Z,6.30
2022-11-28T15:47:58.956Z,7.00
2022-11-28T15:50:29.883Z,7.00
2022-11-28T15:53:05.007Z,8.20
2022-11-28T15:55:34.518Z,8.50
2022-11-28T15:58:31.281Z,7.80
2022-11-28T16:01:21.855Z,7.70
2022-11-28T16:04:03.966Z,8.00
2022-11-28T16:06:35.147Z,11.60
2022-11-28T16:09:07.349Z,8.30
2022-11-28T16:11:36.430Z,6.90
2022-11-28T16:14:09.812Z,7.50
2022-11-28T16:16:39.245Z,7.90
2022-11-28T16:19:18.682Z,7.20
2022-11-28T16:21:53.898Z,8.50
2022-11-28T16:24:42.217Z,7.80
2022-11-28T16:27:37.162Z,7.00
2022-11-28T16:30:29.484Z,7.50
2022-11-28T16:32:57.780Z,9.20
2022-11-28T16:35:44.880Z,9.20
2022-11-28T16:38:19.190Z,8.30
2022-11-28T16:40:46.142Z,6.80
2022-11-28T16:43:34.490Z,7.30
2022-11-28T16:46:06.784Z,7.20
2022-11-28T16:48:48.110Z,7.70
2022-11-28T16:51:15.496Z,6.60
2022-11-28T16:53:55.232Z,7.60
2022-11-28T16:56:31.195Z,7.60
2022-11-28T16:59:11.971Z,8.20
2022-11-28T17:01:41.287Z,8.70
2022-11-28T17:04:30.174Z,9.00
2022-11-28T17:07:05.682Z,8.40
2022-11-28T17:09:34.057Z,9.10
2022-11-28T17:12:42.316Z,8.90
2022-11-28T17:15:24.451Z,8.70
2022-11-28T17:17:51.408Z,8.40
2022-11-28T17:20:18.981Z,8.20
2022-11-28T17:22:48.622Z,9.70
2022-11-28T17:25:21.305Z,9.70
2022-11-28T17:27:48.933Z,10.80
2022-11-28T17:30:19.609Z,11.50
2022-11-28T17:32:52.274Z,11.40
2022-11-28T17:35:25.706Z,8.50
2022-11-28T17:37:53.483Z,8.20
2022-11-28T17:40:33.222Z,8.90
2022-11-28T17:43:01.506Z,8.80
2022-11-28T17:45:34.089Z,8.30
2022-11-28T17:48:01.016Z,9.10
2022-11-28T17:50:28.482Z,8.10
2022-11-28T17:52:55.273Z,7.40
2022-11-28T17:55:22.403Z,8.00
2022-11-28T17:57:49.313Z,8.70
2022-11-28T18:00:16.965Z,8.50
2022-11-28T18:05:11.070Z,8.60
2022-11-28T18:07:39.120Z,7.90
2022-11-28T18:10:10.009Z,9.10
2022-11-28T18:12:38.247Z,9.10
2022-11-28T18:19:59.913Z,8.10
2022-11-28T18:22:27.746Z,7.60
2022-11-28T18:24:54.543Z,9.30
2022-11-28T18:27:21.373Z,9.10
2022-11-28T18:29:48.722Z,9.80
2022-11-28T18:32:15.653Z,11.00
2022-11-28T18:34:43.211Z,9.90
2022-11-28T18:37:10.978Z,9.80
2022-11-28T18:39:37.804Z,10.60
2022-11-28T18:42:05.787Z,10.40
2022-11-28T18:44:32.724Z,11.10
2022-11-28T18:46:59.872Z,12.00
2022-11-28T18:49:27.379Z,10.30
2022-11-28T18:51:56.841Z,9.70
2022-11-28T18:54:23.781Z,8.90
2022-11-28T18:56:50.553Z,7.60
2022-11-28T18:59:17.792Z,7.50
2022-11-28T19:01:44.636Z,8.10
2022-11-28T19:04:12.890Z,7.90
2022-11-28T19:06:42.958Z,8.40
2022-11-28T19:09:16.165Z,8.80
2022-11-28T19:11:44.440Z,8.90
2022-11-28T19:14:21.563Z,8.90
2022-11-28T19:16:49.459Z,10.70
2022-11-28T19:24:13.544Z,9.80
2022-11-28T19:26:40.372Z,9.40
2022-11-28T19:29:07.803Z,9.10
2022-11-28T19:31:37.413Z,10.00
2022-11-28T19:34:14.862Z,9.30
2022-11-28T19:36:45.936Z,9.70
2022-11-28T19:39:22.139Z,9.50
2022-11-28T19:41:51.530Z,9.40
2022-11-28T19:44:21.053Z,11.10
2022-11-28T19:46:48.403Z,10.40
2022-11-28T19:49:20.065Z,11.00
2022-11-28T19:51:49.146Z,11.10
2022-11-28T19:54:19.761Z,12.70
2022-11-28T19:56:48.571Z,12.50
2022-11-28T20:01:43.543Z,11.20
2022-11-28T20:04:11.038Z,12.70
2022-11-28T20:06:38.193Z,12.60
2022-11-28T20:09:10.217Z,11.30
2022-11-28T20:11:43.204Z,12.10
2022-11-28T20:14:17.175Z,13.20
2022-11-28T20:16:45.560Z,12.70
2022-11-28T20:19:15.077Z,12.90
2022-11-28T20:21:44.041Z,13.40
2022-11-28T20:24:11.190Z,25.90
2022-11-28T20:26:41.953Z,31.20
2022-11-28T20:29:14.181Z,32.30
2022-11-28T20:31:45.711Z,28.00
2022-11-28T20:34:17.374Z,26.10
2022-11-28T20:36:45.094Z,28.90
2022-11-28T20:39:13.030Z,28.20
2022-11-28T20:41:40.134Z,22.50
2022-11-28T20:44:07.339Z,18.40
2022-11-28T20:46:35.874Z,16.30
2022-11-28T20:49:06.567Z,16.00
2022-11-28T20:51:35.984Z,15.30
2022-11-28T20:54:05.349Z,13.60
2022-11-28T20:56:51.946Z,12.50
2022-11-28T20:59:24.926Z,12.30
2022-11-28T21:01:51.848Z,12.90
2022-11-28T21:04:19.336Z,13.10
2022-11-28T21:06:49.065Z,13.30
2022-11-28T21:09:18.132Z,13.10
2022-11-28T21:12:01.039Z,10.70
2022-11-28T21:14:29.413Z,10.90
2022-11-28T21:16:58.095Z,10.10
2022-11-28T21:19:25.168Z,9.50
2022-11-28T21:21:52.105Z,9.90
2022-11-28T21:24:19.074Z,12.80
2022-11-28T21:26:52.644Z,12.90
2022-11-28T21:29:21.624Z,13.40
2022-11-28T21:31:48.470Z,13.60
2022-11-28T21:34:16.966Z,11.80
2022-11-28T21:36:44.723Z,11.40
2022-11-28T21:39:20.014Z,10.40
2022-11-28T21:41:47.564Z,9.80
2022-11-28T21:44:14.798Z,8.80
2022-11-28T21:46:41.728Z,8.70
2022-11-28T21:49:08.663Z,9.50
2022-11-28T21:51:40.270Z,10.40
2022-11-28T21:54:07.452Z,10.70
2022-11-28T21:56:34.316Z,10.20
2022-11-28T21:59:01.330Z,10.50
2022-11-28T22:01:28.690Z,11.40
2022-11-28T22:04:02.166Z,11.80
2022-11-28T22:06:31.940Z,11.40
2022-11-28T22:09:07.090Z,11.20
2022-11-28T22:11:36.156Z,9.60
2022-11-28T22:14:03.575Z,8.50
2022-11-28T22:16:30.542Z,10.20
2022-11-28T22:19:00.747Z,9.00
2022-11-28T22:21:51.179Z,9.20
2022-11-28T22:24:15.382Z,9.00
2022-11-28T22:26:43.527Z,9.90
2022-11-28T22:29:10.345Z,10.50
2022-11-28T22:31:37.727Z,9.30
2022-11-28T22:34:04.682Z,10.00
2022-11-28T22:36:33.557Z,9.70
2022-11-28T22:39:01.147Z,10.30
2022-11-28T22:41:29.631Z,10.40
2022-11-28T22:44:01.639Z,10.40
2022-11-28T22:46:31.474Z,9.00
2022-11-28T22:49:01.389Z,9.00
2022-11-28T22:51:30.611Z,7.90
2022-11-28T22:54:00.944Z,7.30
2022-11-28T22:56:32.140Z,8.00
2022-11-28T22:58:59.406Z,6.90
2022-11-28T23:03:58.105Z,7.50
2022-11-28T23:06:30.705Z,9.50
2022-11-28T23:08:59.770Z,9.00
2022-11-28T23:11:32.911Z,8.70
2022-11-28T23:14:02.253Z,8.50
2022-11-28T23:16:36.925Z,8.20
2022-11-28T23:19:10.373Z,7.50
2022-11-28T23:21:41.849Z,7.90
2022-11-28T23:24:15.045Z,7.80
2022-11-28T23:26:43.928Z,7.00
2022-11-28T23:29:12.195Z,6.80
2022-11-28T23:31:41.817Z,7.20
2022-11-28T23:34:10.494Z,7.40
2022-11-28T23:36:45.844Z,8.10
2022-11-28T23:39:22.203Z,7.00
2022-11-28T23:41:50.376Z,8.20
2022-11-28T23:46:47.267Z,7.40
2022-11-28T23:51:41.810Z,7.40
2022-11-28T23:54:11.732Z,7.90
2022-11-28T23:56:40.740Z,6.90
2022-11-28T23:59:10.589Z,7.60
